createdAt,value
2023-03-11T11:26:36.683Z,18048.00
2023-03-11T11:27:36.670Z,17760.00
2023-03-11T11:28:36.628Z,17376.00
2023-03-11T11:29:36.613Z,17024.00
2023-03-11T11:30:36.621Z,16608.00
2023-03-11T11:44:02.298Z,16608.00
2023-03-11T11:45:02.266Z,17088.00
2023-03-11T11:46:02.300Z,17344.00
2023-03-11T11:47:02.362Z,17472.00
2023-03-11T11:48:02.226Z,17632.00
2023-03-11T11:49:02.167Z,17792.00
2023-03-11T11:50:02.204Z,17664.00
2023-03-11T11:51:02.147Z,17472.00
2023-03-11T11:57:59.753Z,18464.00
2023-03-11T11:58:59.724Z,18016.00
2023-03-11T11:59:59.695Z,17376.00
2023-03-11T12:18:18.965Z,19904.00
2023-03-11T12:19:18.964Z,20384.00
2023-03-11T12:20:18.930Z,19104.00
2023-03-11T12:30:10.638Z,21248.00
2023-03-11T12:31:10.721Z,21408.00
2023-03-11T12:32:10.585Z,18688.00
2023-03-11T12:33:10.565Z,17600.00
2023-03-11T12:34:10.571Z,20448.00
2023-03-11T12:35:10.541Z,43808.00
2023-03-11T12:36:10.568Z,60480.00
2023-03-11T12:37:10.482Z,46912.00
2023-03-11T12:38:10.473Z,29728.00
2023-03-11T12:39:10.450Z,16960.00
2023-03-11T12:40:10.410Z,18336.00
2023-03-11T12:41:10.397Z,21536.00
2023-03-11T12:42:10.388Z,22272.00
2023-03-11T12:43:10.376Z,20736.00
2023-03-11T12:44:10.359Z,21152.00
2023-03-11T12:45:10.318Z,25664.00
2023-03-11T12:46:10.378Z,18336.00
2023-03-11T12:47:10.282Z,16672.00
2023-03-11T12:48:10.265Z,16096.00
2023-03-11T12:49:56.275Z,18208.00
2023-03-11T12:50:56.204Z,23424.00
2023-03-11T13:11:22.720Z,17600.00
2023-03-11T13:12:22.683Z,16736.00
2023-03-11T13:13:22.670Z,17984.00
2023-03-11T13:15:41.399Z,17568.00
2023-03-11T13:16:41.429Z,17472.00
2023-03-11T13:17:41.329Z,16928.00
2023-03-11T13:18:41.321Z,16896.00
2023-03-11T13:23:55.177Z,18176.00
2023-03-11T13:24:55.168Z,14808.00
2023-03-11T13:25:55.125Z,16640.00
2023-03-11T13:26:55.098Z,14580.00
2023-03-11T13:29:44.253Z,16672.00
2023-03-11T13:30:44.242Z,24480.00
2023-03-11T13:33:24.473Z,17984.00
2023-03-11T13:34:24.456Z,17504.00
2023-03-11T13:35:24.429Z,15760.00
2023-03-11T13:36:24.420Z,15224.00
2023-03-11T13:37:24.375Z,16512.00
2023-03-11T13:38:24.368Z,16736.00
2023-03-11T13:39:24.365Z,17024.00
2023-03-11T13:40:24.382Z,21408.00
2023-03-11T13:41:24.297Z,23200.00
2023-03-11T13:42:24.287Z,27072.00
2023-03-11T13:43:24.260Z,19072.00
2023-03-11T13:44:24.280Z,20960.00
2023-03-11T13:45:24.319Z,18752.00
2023-03-11T13:46:24.217Z,17184.00
2023-03-11T13:47:24.202Z,16448.00
2023-03-11T13:48:24.165Z,16448.00
2023-03-11T13:49:24.164Z,16544.00
2023-03-11T13:50:24.153Z,17280.00
2023-03-11T13:51:24.138Z,17728.00
2023-03-11T13:52:24.109Z,18880.00
2023-03-11T13:53:24.069Z,33440.00
2023-03-11T13:54:26.074Z,59840.00
2023-03-11T13:55:24.051Z,34208.00
2023-03-11T13:56:24.025Z,29728.00
2023-03-11T13:57:23.988Z,20096.00
2023-03-11T13:58:23.976Z,17248.00
2023-03-11T13:59:23.967Z,17376.00
2023-03-11T14:00:23.944Z,15384.00
2023-03-11T14:01:24.016Z,13876.00
2023-03-11T14:04:55.848Z,18304.00
2023-03-11T14:18:27.987Z,12668.00
2023-03-11T14:53:04.850Z,20864.00
2023-03-11T15:02:06.120Z,9096.00
